Time;durP1;ratioP1;P1;durP2;ratioP2;P2;SDS_P1;SDS_P2;PMS_P1;PMS_P2;Temp;Humidity;BMP_temperature;BMP_pressure;BME280_temperature;BME280_humidity;BME280_pressure;Samples;Min_cycle;Max_cycle;Signal;HPM_P1;HPM_P2
2022/11/20 00:00:01;;;;;;;0.20;0.10;;;;;;;;;;4989112;28;20037;-84
2022/11/20 00:02:30;;;;;;;0.20;0.10;;;;;;;;;;5001252;28;20057;-82
2022/11/20 00:04:56;;;;;;;0.20;0.10;;;;;;;;;;4997799;28;20091;-83
2022/11/20 00:07:22;;;;;;;0.20;0.13;;;;;;;;;;4980331;28;20045;-83
2022/11/20 00:09:48;;;;;;;0.20;0.10;;;;;;;;;;5002294;28;20136;-84
2022/11/20 00:12:14;;;;;;;0.20;0.10;;;;;;;;;;4986630;28;20397;-83
2022/11/20 00:14:41;;;;;;;0.20;0.10;;;;;;;;;;4985650;28;20057;-84
2022/11/20 00:17:07;;;;;;;0.20;0.10;;;;;;;;;;4987784;28;20049;-84
2022/11/20 00:19:33;;;;;;;0.85;0.85;;;;;;;;;;4970616;28;20529;-83
2022/11/20 00:21:59;;;;;;;0.20;0.10;;;;;;;;;;4985464;28;20053;-82
2022/11/20 00:24:25;;;;;;;0.20;0.10;;;;;;;;;;4986276;28;20041;-83
2022/11/20 00:26:51;;;;;;;0.20;0.20;;;;;;;;;;4964054;28;20053;-84
2022/11/20 00:29:17;;;;;;;0.20;0.10;;;;;;;;;;4972220;28;20077;-83
2022/11/20 00:31:43;;;;;;;0.20;0.10;;;;;;;;;;4968134;28;20649;-83
2022/11/20 00:34:10;;;;;;;0.20;0.10;;;;;;;;;;4969864;28;21394;-84
2022/11/20 00:36:36;;;;;;;0.20;0.10;;;;;;;;;;4988751;28;20042;-83
2022/11/20 00:39:02;;;;;;;0.20;0.10;;;;;;;;;;4984727;28;20038;-84
2022/11/20 00:41:29;;;;;;;0.20;0.10;;;;;;;;;;5003586;28;20037;-84
2022/11/20 00:43:56;;;;;;;0.20;0.10;;;;;;;;;;4989759;28;20046;-84
2022/11/20 00:46:23;;;;;;;0.20;0.10;;;;;;;;;;5001553;28;20041;-82
2022/11/20 00:48:49;;;;;;;0.20;0.10;;;;;;;;;;5002890;28;20073;-83
2022/11/20 00:51:16;;;;;;;0.20;0.10;;;;;;;;;;4986416;28;20052;-84
2022/11/20 00:53:43;;;;;;;0.20;0.10;;;;;;;;;;4984942;28;20121;-84
2022/11/20 00:56:16;;;;;;;0.20;0.13;;;;;;;;;;5002495;28;20045;-83
2022/11/20 00:58:44;;;;;;;0.20;0.10;;;;;;;;;;5001573;28;20041;-84
2022/11/20 01:01:11;;;;;;;0.20;0.10;;;;;;;;;;5001227;28;20447;-83
2022/11/20 01:03:39;;;;;;;0.20;0.10;;;;;;;;;;5001356;28;20049;-83
2022/11/20 01:06:10;;;;;;;0.20;0.10;;;;;;;;;;4979222;28;20707;-83
2022/11/20 01:08:37;;;;;;;0.20;0.10;;;;;;;;;;4996580;28;20578;-84
2022/11/20 01:11:04;;;;;;;0.20;0.10;;;;;;;;;;4999813;28;20033;-84
2022/11/20 01:13:37;;;;;;;0.20;0.10;;;;;;;;;;5000225;28;20038;-84
2022/11/20 01:16:09;;;;;;;0.20;0.10;;;;;;;;;;5002834;28;20040;-84
2022/11/20 01:18:35;;;;;;;0.20;0.10;;;;;;;;;;5001196;28;22154;-85
2022/11/20 01:21:06;;;;;;;0.20;0.10;;;;;;;;;;4984649;28;20030;-84
2022/11/20 01:23:33;;;;;;;0.20;0.10;;;;;;;;;;4998984;28;20124;-83
2022/11/20 01:26:00;;;;;;;0.20;0.10;;;;;;;;;;4980856;28;20044;-83
2022/11/20 01:28:26;;;;;;;0.20;0.10;;;;;;;;;;5001363;28;20400;-83
2022/11/20 01:30:52;;;;;;;0.20;0.10;;;;;;;;;;4999913;28;20690;-83
2022/11/20 01:33:19;;;;;;;0.20;0.10;;;;;;;;;;4984661;28;20041;-82
2022/11/20 01:35:45;;;;;;;0.20;0.10;;;;;;;;;;4968997;28;20119;-83
2022/11/20 01:38:11;;;;;;;0.20;0.10;;;;;;;;;;4989273;28;20052;-85
2022/11/20 01:40:37;;;;;;;0.20;0.10;;;;;;;;;;4970265;28;20065;-83
2022/11/20 01:43:22;;;;;;;0.20;0.10;;;;;;;;;;4969189;28;20496;-84
2022/11/20 01:45:51;;;;;;;0.20;0.10;;;;;;;;;;4988167;28;20061;-85
2022/11/20 01:48:18;;;;;;;0.20;0.10;;;;;;;;;;4985484;28;20103;-84
2022/11/20 01:50:45;;;;;;;0.20;0.10;;;;;;;;;;4985001;28;20053;-84
2022/11/20 01:53:14;;;;;;;0.20;0.10;;;;;;;;;;5001252;28;20041;-82
2022/11/20 01:55:43;;;;;;;0.20;0.10;;;;;;;;;;4998500;28;20044;-83
2022/11/20 01:58:10;;;;;;;0.20;0.10;;;;;;;;;;5000909;28;20038;-83
2022/11/20 02:00:36;;;;;;;0.20;0.10;;;;;;;;;;5003300;28;20046;-83
2022/11/20 02:03:04;;;;;;;0.20;0.10;;;;;;;;;;4973325;28;20121;-83
2022/11/20 02:05:36;;;;;;;0.20;0.10;;;;;;;;;;5005270;28;20029;-84
2022/11/20 02:08:03;;;;;;;0.20;0.10;;;;;;;;;;5001545;28;20038;-83
2022/11/20 02:10:29;;;;;;;0.20;0.10;;;;;;;;;;4993797;28;20054;-83
2022/11/20 02:15:41;;;;;;;0.20;0.10;;;;;;;;;;5003663;28;20612;-82
2022/11/20 02:18:08;;;;;;;0.20;0.10;;;;;;;;;;4990681;28;20042;-83
2022/11/20 02:20:34;;;;;;;0.20;0.10;;;;;;;;;;4988827;28;20046;-83
2022/11/20 02:23:03;;;;;;;0.20;0.10;;;;;;;;;;5001794;28;20103;-83
2022/11/20 02:25:29;;;;;;;0.20;0.10;;;;;;;;;;5022107;28;20050;-84
2022/11/20 02:27:55;;;;;;;0.20;0.10;;;;;;;;;;5007358;28;20141;-84
2022/11/20 02:30:21;;;;;;;0.20;0.10;;;;;;;;;;5007192;28;20147;-83
2022/11/20 02:32:47;;;;;;;0.20;0.10;;;;;;;;;;4999467;28;20025;-84
2022/11/20 02:35:19;;;;;;;0.20;0.10;;;;;;;;;;4991806;28;20092;-84
2022/11/20 02:37:48;;;;;;;0.20;0.10;;;;;;;;;;5018574;28;20052;-85
2022/11/20 02:40:14;;;;;;;0.20;0.10;;;;;;;;;;5022208;28;20034;-83
2022/11/20 02:42:40;;;;;;;0.30;0.30;;;;;;;;;;4992096;28;20042;-83
2022/11/20 02:45:07;;;;;;;0.20;0.10;;;;;;;;;;5007883;28;20397;-82
2022/11/20 02:47:33;;;;;;;0.20;0.10;;;;;;;;;;5031576;23;20037;-81
2022/11/20 02:49:59;;;;;;;0.20;0.13;;;;;;;;;;5034143;28;20563;-81
2022/11/20 02:52:26;;;;;;;0.20;0.20;;;;;;;;;;5033637;28;20154;-81
2022/11/20 02:54:52;;;;;;;0.40;0.40;;;;;;;;;;5048818;28;20095;-81
2022/11/20 02:57:18;;;;;;;0.20;0.10;;;;;;;;;;5032883;28;20037;-80
2022/11/20 02:59:44;;;;;;;0.20;0.10;;;;;;;;;;5044297;28;20120;-82
2022/11/20 03:02:10;;;;;;;0.20;0.10;;;;;;;;;;5034539;28;20072;-82
2022/11/20 03:04:36;;;;;;;0.20;0.10;;;;;;;;;;5048594;28;20140;-81
2022/11/20 03:07:02;;;;;;;0.20;0.10;;;;;;;;;;5048681;28;20041;-82
2022/11/20 03:09:28;;;;;;;0.20;0.10;;;;;;;;;;5049545;28;20845;-82
2022/11/20 03:11:54;;;;;;;0.20;0.10;;;;;;;;;;5026069;28;20660;-82
2022/11/20 03:14:20;;;;;;;0.20;0.10;;;;;;;;;;5062821;28;20132;-85
2022/11/20 03:16:46;;;;;;;0.20;0.10;;;;;;;;;;5045589;28;20059;-85
2022/11/20 03:19:12;;;;;;;0.20;0.10;;;;;;;;;;5066352;28;20105;-84
2022/11/20 03:21:39;;;;;;;0.20;0.10;;;;;;;;;;5051424;28;20980;-85
2022/11/20 03:24:05;;;;;;;0.20;0.10;;;;;;;;;;5050911;28;20392;-84
2022/11/20 03:26:31;;;;;;;0.20;0.10;;;;;;;;;;5040553;28;20116;-85
2022/11/20 03:28:58;;;;;;;0.20;0.10;;;;;;;;;;5005516;28;20042;-85
2022/11/20 03:31:26;;;;;;;0.20;0.10;;;;;;;;;;5042377;28;20041;-85
2022/11/20 03:33:52;;;;;;;0.20;0.10;;;;;;;;;;5035146;28;20049;-86
2022/11/20 03:36:19;;;;;;;0.20;0.10;;;;;;;;;;5053467;28;20604;-86
2022/11/20 03:38:45;;;;;;;0.20;0.10;;;;;;;;;;5020502;28;20079;-86
2022/11/20 03:41:13;;;;;;;0.20;0.10;;;;;;;;;;5032660;28;20055;-86
2022/11/20 03:43:39;;;;;;;0.22;0.22;;;;;;;;;;5021406;28;20044;-86
2022/11/20 03:46:05;;;;;;;0.20;0.10;;;;;;;;;;5035125;28;20044;-86
2022/11/20 03:48:31;;;;;;;0.20;0.10;;;;;;;;;;5019485;28;20045;-87
2022/11/20 03:51:17;;;;;;;0.20;0.10;;;;;;;;;;5019898;28;20047;-87
2022/11/20 03:53:44;;;;;;;0.20;0.10;;;;;;;;;;5038624;28;20040;-87
2022/11/20 03:56:11;;;;;;;0.20;0.10;;;;;;;;;;5026829;28;20134;-85
2022/11/20 03:58:41;;;;;;;0.20;0.10;;;;;;;;;;5026437;28;20071;-85
2022/11/20 04:01:13;;;;;;;0.20;0.10;;;;;;;;;;5038947;28;20048;-86
2022/11/20 04:03:39;;;;;;;0.20;0.10;;;;;;;;;;5026291;28;20743;-86
2022/11/20 04:06:10;;;;;;;0.20;0.10;;;;;;;;;;5004186;28;20516;-86
2022/11/20 04:08:36;;;;;;;0.20;0.10;;;;;;;;;;5022936;28;20102;-86
2022/11/20 04:11:09;;;;;;;0.20;0.10;;;;;;;;;;5011026;28;20029;-86
2022/11/20 04:13:36;;;;;;;0.20;0.10;;;;;;;;;;5031005;28;20033;-86
2022/11/20 04:16:02;;;;;;;0.20;0.10;;;;;;;;;;5048082;28;20498;-86
2022/11/20 04:18:28;;;;;;;0.20;0.10;;;;;;;;;;5014073;28;20040;-85
2022/11/20 04:20:54;;;;;;;0.20;0.10;;;;;;;;;;5036098;28;20558;-88
2022/11/20 04:23:20;;;;;;;0.20;0.10;;;;;;;;;;5029815;28;20469;-87
2022/11/20 04:25:46;;;;;;;0.20;0.10;;;;;;;;;;5028461;28;20652;-86
2022/11/20 04:28:12;;;;;;;0.20;0.10;;;;;;;;;;5032819;28;20059;-85
2022/11/20 04:30:38;;;;;;;0.20;0.10;;;;;;;;;;5035873;28;20072;-86
2022/11/20 04:33:04;;;;;;;0.20;0.10;;;;;;;;;;5035043;28;20039;-85
2022/11/20 04:35:30;;;;;;;0.20;0.10;;;;;;;;;;5029110;28;20029;-86
2022/11/20 04:37:56;;;;;;;0.20;0.10;;;;;;;;;;5026642;28;20099;-85
2022/11/20 04:40:22;;;;;;;0.20;0.10;;;;;;;;;;5022654;28;20037;-85
2022/11/20 04:42:48;;;;;;;0.20;0.10;;;;;;;;;;5047732;28;20154;-85
2022/11/20 04:45:14;;;;;;;0.20;0.10;;;;;;;;;;5013597;28;20145;-85
2022/11/20 04:47:40;;;;;;;0.20;0.10;;;;;;;;;;5041886;28;21271;-84
2022/11/20 04:50:06;;;;;;;0.20;0.10;;;;;;;;;;5029095;28;20048;-86
2022/11/20 04:52:32;;;;;;;0.20;0.10;;;;;;;;;;5045845;28;20037;-87
2022/11/20 04:54:58;;;;;;;0.20;0.10;;;;;;;;;;5026998;28;20049;-85
2022/11/20 04:57:24;;;;;;;0.20;0.10;;;;;;;;;;5055650;28;20040;-84
2022/11/20 04:59:50;;;;;;;0.20;0.10;;;;;;;;;;5009769;28;20040;-86
2022/11/20 05:02:17;;;;;;;0.20;0.10;;;;;;;;;;5039303;28;20843;-85
2022/11/20 05:04:43;;;;;;;0.20;0.10;;;;;;;;;;5024697;28;20220;-86
2022/11/20 05:07:09;;;;;;;0.20;0.20;;;;;;;;;;5018322;28;20041;-86
2022/11/20 05:09:35;;;;;;;0.20;0.10;;;;;;;;;;5025715;28;20045;-85
2022/11/20 05:12:01;;;;;;;0.20;0.10;;;;;;;;;;5035742;28;20068;-85
2022/11/20 05:14:27;;;;;;;0.20;0.10;;;;;;;;;;5021117;28;20041;-86
2022/11/20 05:16:53;;;;;;;0.20;0.10;;;;;;;;;;5007576;28;20045;-86
2022/11/20 05:19:19;;;;;;;0.20;0.10;;;;;;;;;;5027276;28;20038;-87
2022/11/20 05:21:45;;;;;;;0.45;0.45;;;;;;;;;;5035883;28;20056;-85
2022/11/20 05:24:11;;;;;;;0.20;0.10;;;;;;;;;;5022425;28;20036;-85
2022/11/20 05:26:37;;;;;;;0.20;0.10;;;;;;;;;;5021752;28;20033;-89
2022/11/20 05:29:03;;;;;;;0.20;0.10;;;;;;;;;;5002175;28;20043;-87
2022/11/20 05:31:29;;;;;;;0.20;0.10;;;;;;;;;;5039764;28;20144;-86
2022/11/20 05:33:56;;;;;;;0.20;0.10;;;;;;;;;;5036011;28;20111;-87
2022/11/20 05:36:22;;;;;;;0.20;0.10;;;;;;;;;;5022068;28;20029;-85
2022/11/20 05:38:48;;;;;;;0.20;0.10;;;;;;;;;;5015584;28;20045;-87
2022/11/20 05:41:16;;;;;;;0.20;0.10;;;;;;;;;;5004060;28;20044;-87
2022/11/20 05:43:43;;;;;;;0.20;0.10;;;;;;;;;;5033200;28;20051;-85
2022/11/20 05:46:11;;;;;;;0.30;0.28;;;;;;;;;;5034673;28;20468;-84
2022/11/20 05:48:37;;;;;;;0.20;0.10;;;;;;;;;;5035632;28;20037;-85
2022/11/20 05:51:04;;;;;;;0.20;0.10;;;;;;;;;;5034711;28;20091;-85
2022/11/20 05:53:30;;;;;;;0.20;0.10;;;;;;;;;;5055434;28;20548;-85
2022/11/20 05:55:57;;;;;;;0.20;0.10;;;;;;;;;;5028147;28;20065;-85
2022/11/20 05:58:23;;;;;;;0.20;0.10;;;;;;;;;;5034766;28;20037;-87
2022/11/20 06:00:49;;;;;;;0.20;0.10;;;;;;;;;;5030991;28;20049;-86
2022/11/20 06:03:15;;;;;;;0.20;0.10;;;;;;;;;;5023157;28;20140;-85
2022/11/20 06:05:41;;;;;;;0.20;0.10;;;;;;;;;;5001989;28;20144;-85
2022/11/20 06:08:07;;;;;;;0.20;0.10;;;;;;;;;;5020221;28;20064;-85
2022/11/20 06:10:33;;;;;;;0.20;0.10;;;;;;;;;;5021919;28;20037;-83
2022/11/20 06:12:59;;;;;;;0.20;0.10;;;;;;;;;;5015785;28;20041;-85
2022/11/20 06:15:25;;;;;;;0.20;0.10;;;;;;;;;;5036767;28;20041;-85
2022/11/20 06:17:55;;;;;;;0.20;0.10;;;;;;;;;;5026608;28;20052;-86
2022/11/20 06:20:21;;;;;;;0.20;0.10;;;;;;;;;;5037048;28;20040;-85
2022/11/20 06:22:48;;;;;;;0.20;0.10;;;;;;;;;;5055228;28;20116;-85
2022/11/20 06:25:14;;;;;;;0.20;0.10;;;;;;;;;;5036774;28;20037;-85
2022/11/20 06:27:40;;;;;;;0.20;0.10;;;;;;;;;;5023219;28;20112;-85
2022/11/20 06:30:06;;;;;;;0.20;0.10;;;;;;;;;;5016333;28;20091;-85
2022/11/20 06:32:33;;;;;;;0.20;0.10;;;;;;;;;;5035067;28;20033;-88
2022/11/20 06:34:59;;;;;;;0.20;0.10;;;;;;;;;;5021405;28;20434;-86
2022/11/20 06:37:25;;;;;;;0.20;0.10;;;;;;;;;;5011184;28;20059;-87
2022/11/20 06:39:51;;;;;;;0.20;0.10;;;;;;;;;;5030665;28;20710;-85
2022/11/20 06:42:17;;;;;;;0.20;0.10;;;;;;;;;;5003254;28;20046;-86
2022/11/20 06:44:43;;;;;;;0.20;0.10;;;;;;;;;;5042326;28;20079;-87
2022/11/20 06:47:10;;;;;;;0.20;0.10;;;;;;;;;;5018863;28;20040;-87
2022/11/20 06:49:38;;;;;;;0.20;0.10;;;;;;;;;;5034133;28;20468;-84
2022/11/20 06:52:04;;;;;;;0.20;0.10;;;;;;;;;;5023629;28;20037;-83
2022/11/20 06:54:30;;;;;;;0.20;0.10;;;;;;;;;;5018487;28;20041;-85
2022/11/20 06:56:56;;;;;;;0.20;0.10;;;;;;;;;;5018086;28;20033;-85
2022/11/20 06:59:22;;;;;;;0.20;0.10;;;;;;;;;;5033119;28;20041;-86
2022/11/20 07:01:48;;;;;;;0.20;0.10;;;;;;;;;;5015249;28;20167;-84
2022/11/20 07:04:14;;;;;;;0.20;0.20;;;;;;;;;;5022723;28;20587;-84
2022/11/20 07:06:40;;;;;;;0.20;0.10;;;;;;;;;;5036502;28;20060;-84
2022/11/20 07:09:06;;;;;;;0.20;0.10;;;;;;;;;;5005150;28;20045;-83
2022/11/20 07:11:32;;;;;;;0.20;0.10;;;;;;;;;;5036369;28;20048;-86
2022/11/20 07:13:58;;;;;;;0.20;0.10;;;;;;;;;;5037243;28;20048;-85
2022/11/20 07:16:25;;;;;;;0.20;0.10;;;;;;;;;;5025098;28;20040;-84
2022/11/20 07:18:51;;;;;;;0.65;0.57;;;;;;;;;;5057287;28;20052;-85
2022/11/20 07:21:17;;;;;;;0.20;0.10;;;;;;;;;;5003267;28;20041;-83
2022/11/20 07:23:43;;;;;;;0.20;0.10;;;;;;;;;;5020362;28;20892;-84
2022/11/20 07:26:10;;;;;;;0.28;0.28;;;;;;;;;;5023874;28;20041;-87
2022/11/20 07:28:36;;;;;;;0.20;0.10;;;;;;;;;;5036268;28;20132;-86
2022/11/20 07:31:02;;;;;;;0.20;0.10;;;;;;;;;;5002875;28;20036;-85
2022/11/20 07:33:29;;;;;;;0.20;0.10;;;;;;;;;;5031715;28;20094;-85
2022/11/20 07:35:55;;;;;;;0.20;0.10;;;;;;;;;;5029764;28;20041;-84
2022/11/20 07:38:21;;;;;;;0.20;0.10;;;;;;;;;;5030746;28;20058;-85
2022/11/20 07:40:47;;;;;;;0.20;0.10;;;;;;;;;;5032142;28;20037;-83
2022/11/20 07:43:13;;;;;;;0.20;0.10;;;;;;;;;;5021796;28;20077;-83
2022/11/20 07:45:39;;;;;;;0.20;0.10;;;;;;;;;;5020566;28;20496;-82
2022/11/20 07:48:05;;;;;;;0.20;0.10;;;;;;;;;;5033474;28;20045;-84
2022/11/20 07:50:32;;;;;;;0.35;0.35;;;;;;;;;;5007207;28;20048;-85
2022/11/20 07:53:02;;;;;;;0.20;0.10;;;;;;;;;;5034139;28;20116;-85
2022/11/20 07:55:28;;;;;;;0.20;0.10;;;;;;;;;;5020126;28;20044;-85
2022/11/20 07:57:55;;;;;;;0.35;0.32;;;;;;;;;;5012040;28;20049;-84
2022/11/20 08:00:21;;;;;;;0.20;0.10;;;;;;;;;;5019586;28;20128;-86
2022/11/20 08:02:48;;;;;;;0.20;0.10;;;;;;;;;;4997227;28;20041;-86
2022/11/20 08:05:14;;;;;;;0.20;0.10;;;;;;;;;;5021954;28;20230;-86
2022/11/20 08:07:40;;;;;;;0.20;0.10;;;;;;;;;;5023311;28;20040;-83
2022/11/20 08:10:07;;;;;;;0.20;0.10;;;;;;;;;;5033373;28;20048;-85
2022/11/20 08:15:21;;;;;;;0.20;0.10;;;;;;;;;;5038571;28;20139;-85
2022/11/20 08:17:47;;;;;;;0.20;0.10;;;;;;;;;;5021509;28;20081;-84
2022/11/20 08:20:13;;;;;;;0.20;0.10;;;;;;;;;;5019628;28;20503;-87
2022/11/20 08:22:39;;;;;;;0.25;0.20;;;;;;;;;;5033242;28;20036;-84
2022/11/20 08:25:06;;;;;;;0.20;0.10;;;;;;;;;;5018161;28;20529;-84
2022/11/20 08:27:32;;;;;;;0.20;0.10;;;;;;;;;;5006696;28;20072;-85
2022/11/20 08:29:58;;;;;;;0.20;0.10;;;;;;;;;;5006953;28;20051;-84
2022/11/20 08:32:25;;;;;;;0.20;0.10;;;;;;;;;;5035282;28;20051;-85
2022/11/20 08:34:51;;;;;;;0.30;0.30;;;;;;;;;;5005347;28;20072;-85
2022/11/20 08:37:17;;;;;;;0.20;0.10;;;;;;;;;;5042776;28;20414;-84
2022/11/20 08:39:43;;;;;;;0.20;0.10;;;;;;;;;;5026352;28;20033;-85
2022/11/20 08:42:09;;;;;;;0.20;0.10;;;;;;;;;;5019233;28;20034;-86
2022/11/20 08:44:35;;;;;;;0.20;0.10;;;;;;;;;;5035720;28;20082;-85
2022/11/20 08:47:02;;;;;;;0.20;0.10;;;;;;;;;;5020175;28;20122;-85
2022/11/20 08:49:28;;;;;;;0.20;0.10;;;;;;;;;;5017722;23;20060;-80
2022/11/20 08:51:55;;;;;;;0.20;0.10;;;;;;;;;;5023851;28;20081;-80
2022/11/20 08:54:22;;;;;;;0.20;0.10;;;;;;;;;;5020776;28;20069;-81
2022/11/20 08:56:48;;;;;;;0.20;0.10;;;;;;;;;;5033591;28;20046;-81
2022/11/20 08:59:14;;;;;;;0.20;0.10;;;;;;;;;;5013048;28;20467;-80
2022/11/20 09:01:40;;;;;;;0.22;0.15;;;;;;;;;;5004637;28;20061;-81
2022/11/20 09:04:07;;;;;;;0.20;0.10;;;;;;;;;;4983127;28;20512;-80
2022/11/20 09:06:33;;;;;;;0.20;0.10;;;;;;;;;;5014940;28;20045;-81
2022/11/20 09:08:59;;;;;;;0.20;0.10;;;;;;;;;;4994263;28;20046;-81
2022/11/20 12:32:18;;;;;;;0.20;0.10;;;;;;;;;;4975083;28;20041;-82
2022/11/20 12:34:49;;;;;;;0.20;0.10;;;;;;;;;;4930165;28;20450;-85
2022/11/20 12:37:20;;;;;;;0.20;0.10;;;;;;;;;;4945758;28;20035;-84
2022/11/20 12:39:50;;;;;;;0.20;0.10;;;;;;;;;;4944033;28;20047;-85
2022/11/20 12:45:27;;;;;;;0.30;0.30;;;;;;;;;;4950793;28;20070;-85
2022/11/20 12:48:12;;;;;;;0.20;0.10;;;;;;;;;;4950784;28;20437;-84
2022/11/20 12:50:50;;;;;;;0.20;0.10;;;;;;;;;;4947108;28;20097;-84
2022/11/20 12:53:16;;;;;;;0.20;0.10;;;;;;;;;;4938085;28;20038;-84
2022/11/20 12:55:55;;;;;;;0.20;0.10;;;;;;;;;;4946260;28;20106;-84
2022/11/20 12:58:22;;;;;;;0.20;0.10;;;;;;;;;;4941056;28;20054;-84
2022/11/20 13:00:54;;;;;;;0.20;0.10;;;;;;;;;;4944077;28;20050;-84
2022/11/20 13:03:30;;;;;;;0.20;0.10;;;;;;;;;;4934910;28;20034;-85
2022/11/20 13:05:56;;;;;;;0.20;0.10;;;;;;;;;;4944215;28;20061;-86
2022/11/20 13:08:25;;;;;;;0.20;0.10;;;;;;;;;;4961245;28;20045;-85
2022/11/20 13:11:13;;;;;;;0.20;0.10;;;;;;;;;;4947954;28;20126;-85
2022/11/20 13:14:00;;;;;;;0.20;0.10;;;;;;;;;;4960717;28;20438;-86
2022/11/20 13:16:31;;;;;;;0.20;0.10;;;;;;;;;;4950305;28;20121;-86
2022/11/20 13:19:02;;;;;;;0.20;0.10;;;;;;;;;;4948835;28;20038;-86
2022/11/20 13:21:46;;;;;;;0.20;0.10;;;;;;;;;;4965931;28;20216;-85
2022/11/20 13:24:23;;;;;;;0.20;0.10;;;;;;;;;;4954870;28;20224;-85
2022/11/20 13:27:00;;;;;;;0.20;0.10;;;;;;;;;;4949878;28;20066;-85
2022/11/20 13:29:26;;;;;;;0.20;0.10;;;;;;;;;;4944982;28;20039;-85
2022/11/20 13:32:02;;;;;;;0.20;0.10;;;;;;;;;;4940307;28;20109;-85
2022/11/20 13:34:28;;;;;;;0.20;0.10;;;;;;;;;;4940349;28;20048;-85
2022/11/20 13:36:56;;;;;;;0.20;0.10;;;;;;;;;;4936544;28;20264;-85
2022/11/20 13:39:29;;;;;;;0.20;0.10;;;;;;;;;;4936900;28;20042;-85
2022/11/20 13:42:16;;;;;;;0.20;0.10;;;;;;;;;;4951489;28;20042;-85
2022/11/20 13:44:47;;;;;;;0.20;0.10;;;;;;;;;;4937439;28;20457;-85
2022/11/20 13:47:22;;;;;;;0.20;0.10;;;;;;;;;;4947586;28;20043;-85
2022/11/20 13:49:49;;;;;;;0.20;0.10;;;;;;;;;;4947131;28;20062;-85
2022/11/20 13:52:34;;;;;;;0.20;0.10;;;;;;;;;;4952977;28;20075;-86
2022/11/20 13:55:16;;;;;;;0.20;0.10;;;;;;;;;;4950594;28;20441;-85
2022/11/20 13:57:48;;;;;;;0.20;0.10;;;;;;;;;;4961701;28;20073;-85
2022/11/20 14:00:18;;;;;;;0.20;0.10;;;;;;;;;;4940022;28;20382;-85
2022/11/20 14:02:49;;;;;;;0.20;0.10;;;;;;;;;;4946375;28;20565;-85
2022/11/20 14:05:27;;;;;;;0.20;0.10;;;;;;;;;;4940447;28;20501;-85
2022/11/20 14:07:54;;;;;;;0.20;0.10;;;;;;;;;;4941979;28;20043;-85
2022/11/20 14:10:30;;;;;;;0.20;0.10;;;;;;;;;;4949913;28;20205;-85
2022/11/20 14:12:56;;;;;;;0.20;0.10;;;;;;;;;;4947645;28;20082;-85
2022/11/20 14:15:33;;;;;;;0.20;0.10;;;;;;;;;;4962958;28;20035;-85
2022/11/20 14:18:00;;;;;;;0.20;0.10;;;;;;;;;;4968378;28;20046;-84
2022/11/20 14:20:28;;;;;;;0.20;0.10;;;;;;;;;;4947162;28;20049;-86
2022/11/20 14:22:58;;;;;;;0.20;0.10;;;;;;;;;;4948263;28;20050;-85
2022/11/20 14:25:27;;;;;;;0.20;0.10;;;;;;;;;;4952333;28;20486;-85
2022/11/20 14:27:57;;;;;;;0.20;0.10;;;;;;;;;;4951105;28;20401;-86
2022/11/20 14:30:27;;;;;;;0.20;0.10;;;;;;;;;;4952163;28;20466;-85
2022/11/20 14:32:57;;;;;;;0.20;0.10;;;;;;;;;;4969530;28;20489;-85
2022/11/20 14:35:25;;;;;;;0.30;0.25;;;;;;;;;;4945664;28;20622;-85
2022/11/20 14:37:52;;;;;;;0.20;0.10;;;;;;;;;;4957555;28;20071;-85
2022/11/20 14:40:34;;;;;;;0.20;0.10;;;;;;;;;;4952642;28;20394;-84
2022/11/20 14:43:01;;;;;;;0.57;0.57;;;;;;;;;;4943944;28;20390;-85
2022/11/20 14:45:27;;;;;;;0.65;0.65;;;;;;;;;;4946737;28;20053;-85
2022/11/20 14:47:55;;;;;;;0.20;0.10;;;;;;;;;;4946964;28;20042;-85
2022/11/20 14:50:26;;;;;;;0.20;0.10;;;;;;;;;;4944357;28;20132;-85
2022/11/20 14:52:56;;;;;;;0.20;0.10;;;;;;;;;;4944502;28;20578;-85
2022/11/20 14:55:26;;;;;;;0.20;0.10;;;;;;;;;;4947435;28;20042;-85
2022/11/20 14:57:56;;;;;;;0.47;0.38;;;;;;;;;;4942328;28;20101;-85
2022/11/20 15:00:22;;;;;;;0.20;0.10;;;;;;;;;;4943434;28;20035;-85
2022/11/20 15:02:54;;;;;;;0.20;0.10;;;;;;;;;;4942611;28;20046;-85
2022/11/20 15:05:21;;;;;;;0.20;0.10;;;;;;;;;;4957899;28;20047;-85
2022/11/20 15:07:52;;;;;;;0.20;0.10;;;;;;;;;;4942628;28;21162;-85
2022/11/20 15:10:26;;;;;;;0.20;0.10;;;;;;;;;;4942733;28;20093;-85
2022/11/20 15:12:54;;;;;;;0.32;0.32;;;;;;;;;;4942919;28;20132;-85
2022/11/20 15:15:40;;;;;;;0.20;0.10;;;;;;;;;;4946167;28;20034;-84
2022/11/20 15:18:11;;;;;;;0.20;0.10;;;;;;;;;;4939678;28;20074;-85
2022/11/20 15:20:37;;;;;;;0.20;0.10;;;;;;;;;;4939080;28;20130;-85
2022/11/20 15:23:11;;;;;;;0.20;0.10;;;;;;;;;;4949682;28;20049;-84
2022/11/20 15:25:38;;;;;;;0.20;0.20;;;;;;;;;;4949956;28;20097;-84
2022/11/20 15:28:26;;;;;;;0.20;0.10;;;;;;;;;;4935107;28;20034;-85
2022/11/20 15:30:52;;;;;;;0.20;0.10;;;;;;;;;;4951421;28;20082;-86
2022/11/20 15:33:18;;;;;;;0.20;0.10;;;;;;;;;;4931968;28;20064;-85
2022/11/20 15:35:47;;;;;;;0.20;0.10;;;;;;;;;;4947601;28;20125;-86
2022/11/20 15:38:13;;;;;;;0.20;0.10;;;;;;;;;;4938871;28;20033;-86
2022/11/20 15:40:39;;;;;;;0.20;0.10;;;;;;;;;;4925659;28;20085;-85
2022/11/20 15:43:07;;;;;;;0.20;0.10;;;;;;;;;;4928566;28;20046;-85
2022/11/20 15:45:36;;;;;;;0.20;0.10;;;;;;;;;;4953661;28;20092;-86
2022/11/20 15:48:06;;;;;;;0.20;0.10;;;;;;;;;;4959402;28;20050;-85
2022/11/20 15:50:37;;;;;;;0.20;0.10;;;;;;;;;;4951567;28;20038;-86
2022/11/20 15:53:03;;;;;;;0.20;0.10;;;;;;;;;;4945241;28;20436;-86
2022/11/20 15:55:29;;;;;;;0.20;0.10;;;;;;;;;;4938483;28;20118;-85
2022/11/20 15:57:58;;;;;;;0.20;0.10;;;;;;;;;;4953962;28;20038;-85
2022/11/20 16:00:24;;;;;;;0.20;0.10;;;;;;;;;;4969146;28;20101;-85
2022/11/20 16:02:50;;;;;;;0.20;0.10;;;;;;;;;;4938684;28;20046;-86
2022/11/20 16:05:19;;;;;;;0.20;0.10;;;;;;;;;;4949740;28;20514;-85
2022/11/20 16:07:45;;;;;;;0.20;0.10;;;;;;;;;;4928423;28;20038;-85
2022/11/20 16:10:11;;;;;;;0.20;0.10;;;;;;;;;;4942581;28;20566;-85
2022/11/20 16:18:08;;;;;;;0.20;0.10;;;;;;;;;;4956990;28;20106;-85
2022/11/20 16:20:35;;;;;;;0.20;0.10;;;;;;;;;;4942200;28;20164;-85
2022/11/20 16:23:01;;;;;;;0.20;0.10;;;;;;;;;;4957331;28;20046;-85
2022/11/20 16:25:27;;;;;;;0.20;0.10;;;;;;;;;;4945028;28;20049;-86
2022/11/20 16:27:54;;;;;;;0.20;0.10;;;;;;;;;;4957446;28;20049;-86
2022/11/20 16:30:20;;;;;;;0.20;0.10;;;;;;;;;;4933973;28;20043;-85
2022/11/20 16:32:46;;;;;;;0.20;0.10;;;;;;;;;;4948038;28;20457;-84
2022/11/20 16:35:12;;;;;;;0.20;0.10;;;;;;;;;;4956234;28;20050;-85
2022/11/20 16:37:39;;;;;;;0.20;0.10;;;;;;;;;;4945286;28;20084;-86
2022/11/20 16:40:05;;;;;;;0.20;0.10;;;;;;;;;;4942919;28;20034;-85
2022/11/20 16:42:35;;;;;;;0.20;0.10;;;;;;;;;;4934321;28;20042;-86
2022/11/20 16:45:01;;;;;;;0.20;0.10;;;;;;;;;;4936285;28;20067;-85
2022/11/20 16:47:27;;;;;;;0.20;0.10;;;;;;;;;;4955897;28;20046;-85
2022/11/20 16:49:53;;;;;;;0.20;0.10;;;;;;;;;;4922751;28;20342;-85
2022/11/20 16:52:19;;;;;;;0.20;0.10;;;;;;;;;;4923480;28;20030;-85
2022/11/20 16:54:45;;;;;;;0.20;0.10;;;;;;;;;;4934070;28;20041;-84
2022/11/20 16:57:11;;;;;;;0.20;0.10;;;;;;;;;;4943882;28;20161;-85
2022/11/20 16:59:37;;;;;;;0.20;0.10;;;;;;;;;;4943545;28;20043;-85
2022/11/20 17:02:04;;;;;;;0.20;0.10;;;;;;;;;;4958720;28;20755;-85
2022/11/20 17:04:30;;;;;;;0.20;0.10;;;;;;;;;;4929951;28;20046;-85
2022/11/20 17:06:56;;;;;;;0.20;0.10;;;;;;;;;;4942942;28;20051;-85
2022/11/20 17:09:22;;;;;;;0.20;0.10;;;;;;;;;;4941431;28;20360;-85
2022/11/20 17:11:48;;;;;;;0.20;0.10;;;;;;;;;;4943018;28;20078;-85
2022/11/20 17:14:14;;;;;;;0.20;0.10;;;;;;;;;;4925862;28;20150;-85
2022/11/20 17:16:44;;;;;;;0.20;0.10;;;;;;;;;;4956387;28;20039;-85
2022/11/20 17:19:20;;;;;;;0.20;0.10;;;;;;;;;;4936720;28;20050;-85
2022/11/20 17:21:49;;;;;;;0.20;0.10;;;;;;;;;;4942431;28;20092;-84
2022/11/20 17:24:15;;;;;;;0.20;0.10;;;;;;;;;;4932226;28;20667;-84
2022/11/20 17:26:42;;;;;;;0.20;0.10;;;;;;;;;;4938830;28;20043;-85
2022/11/20 17:29:10;;;;;;;0.38;0.13;;;;;;;;;;4940357;28;20046;-85
2022/11/20 17:31:47;;;;;;;0.20;0.10;;;;;;;;;;4941617;28;20405;-85
2022/11/20 17:34:14;;;;;;;0.20;0.10;;;;;;;;;;4941856;28;20493;-85
2022/11/20 17:36:43;;;;;;;0.20;0.20;;;;;;;;;;4936391;28;20116;-85
2022/11/20 17:39:13;;;;;;;0.20;0.10;;;;;;;;;;4938131;28;20069;-85
2022/11/20 17:41:42;;;;;;;1.13;0.90;;;;;;;;;;4941223;28;20164;-85
2022/11/20 17:44:10;;;;;;;0.20;0.10;;;;;;;;;;4935659;28;20046;-84
2022/11/20 17:46:36;;;;;;;0.20;0.10;;;;;;;;;;4942047;28;20034;-84
2022/11/20 17:49:03;;;;;;;0.20;0.10;;;;;;;;;;4941844;28;20090;-86
2022/11/20 17:51:30;;;;;;;0.20;0.10;;;;;;;;;;4941727;28;20046;-85
2022/11/20 17:53:58;;;;;;;0.20;0.10;;;;;;;;;;4946416;28;20386;-85
2022/11/20 17:59:20;;;;;;;0.20;0.20;;;;;;;;;;4958515;28;20030;-85
2022/11/20 18:01:50;;;;;;;0.20;0.10;;;;;;;;;;4939656;28;20514;-84
2022/11/20 18:04:16;;;;;;;2.53;2.33;;;;;;;;;;4939017;28;20445;-85
2022/11/20 18:06:42;;;;;;;0.20;0.10;;;;;;;;;;4937754;28;20039;-85
2022/11/20 18:09:10;;;;;;;0.20;0.10;;;;;;;;;;4951875;28;20402;-85
2022/11/20 18:11:41;;;;;;;0.20;0.10;;;;;;;;;;4937494;28;20047;-85
2022/11/20 18:16:57;;;;;;;0.20;0.10;;;;;;;;;;4964950;28;20132;-85
2022/11/20 18:19:25;;;;;;;0.20;0.10;;;;;;;;;;4942373;28;20049;-86
2022/11/20 18:21:51;;;;;;;0.20;0.10;;;;;;;;;;4943697;28;20050;-85
2022/11/20 18:24:20;;;;;;;0.20;0.10;;;;;;;;;;4941339;28;20050;-86
2022/11/20 18:26:46;;;;;;;0.20;0.10;;;;;;;;;;4940702;28;20043;-85